createdAt,value
2019-01-09T00:00:07.128Z,73.44
2019-01-09T00:02:32.997Z,73.69
2019-01-09T00:04:58.876Z,73.46
2019-01-09T00:07:24.880Z,73.20
2019-01-09T00:09:50.795Z,73.10
2019-01-09T00:12:16.683Z,72.07
2019-01-09T00:14:42.658Z,71.65
2019-01-09T00:17:09.345Z,71.51
2019-01-09T00:19:36.857Z,71.08
2019-01-09T00:22:02.724Z,70.80
2019-01-09T00:24:28.607Z,71.35
2019-01-09T00:26:54.464Z,70.93
2019-01-09T00:29:20.345Z,70.97
2019-01-09T00:31:46.251Z,71.36
2019-01-09T00:34:12.228Z,71.65
2019-01-09T00:36:38.092Z,71.47
2019-01-09T00:39:04.766Z,71.79
2019-01-09T00:41:30.640Z,71.13
2019-01-09T00:43:56.495Z,71.35
2019-01-09T00:46:22.494Z,71.56
2019-01-09T00:48:48.374Z,71.73
2019-01-09T00:51:14.241Z,71.16
2019-01-09T00:53:40.124Z,71.21
2019-01-09T00:56:06.066Z,71.27
2019-01-09T00:58:32.020Z,71.27
2019-01-09T01:00:57.908Z,71.22
2019-01-09T01:03:30.554Z,71.55
2019-01-09T01:06:18.096Z,71.80
2019-01-09T01:08:53.681Z,71.70
2019-01-09T01:11:40.072Z,72.10
2019-01-09T01:14:15.576Z,72.01
2019-01-09T01:17:00.547Z,72.63
2019-01-09T01:19:33.277Z,71.72
2019-01-09T01:22:03.439Z,71.50
2019-01-09T01:24:38.737Z,71.69
2019-01-09T01:27:11.204Z,72.35
2019-01-09T01:29:53.211Z,72.84
2019-01-09T01:32:55.068Z,72.62
2019-01-09T01:35:36.708Z,71.58
2019-01-09T01:38:23.287Z,71.17
2019-01-09T01:40:56.080Z,71.03
2019-01-09T01:43:25.772Z,71.52
2019-01-09T01:46:13.673Z,70.75
2019-01-09T01:49:11.022Z,72.07
2019-01-09T01:51:49.834Z,73.05
2019-01-09T01:54:37.834Z,71.67
2019-01-09T01:57:25.306Z,72.23
2019-01-09T02:00:18.231Z,72.06
2019-01-09T02:02:59.881Z,70.95
2019-01-09T02:05:29.555Z,71.21
2019-01-09T02:08:20.573Z,71.57
2019-01-09T02:11:19.598Z,72.67
2019-01-09T02:14:10.447Z,73.01
2019-01-09T02:16:52.291Z,73.66
2019-01-09T02:19:24.828Z,73.97
2019-01-09T02:22:26.882Z,73.25
2019-01-09T02:25:11.695Z,72.74
2019-01-09T02:27:56.086Z,73.26
2019-01-09T02:30:37.772Z,73.16
2019-01-09T02:33:03.662Z,73.47
2019-01-09T02:35:29.552Z,73.93
2019-01-09T02:37:55.404Z,74.25
2019-01-09T02:40:21.293Z,74.18
2019-01-09T02:42:47.176Z,73.93
2019-01-09T02:45:13.033Z,73.64
2019-01-09T02:47:38.972Z,74.05
2019-01-09T02:50:04.860Z,74.27
2019-01-09T02:52:30.832Z,74.05
2019-01-09T02:54:56.794Z,73.81
2019-01-09T02:57:24.606Z,73.88
2019-01-09T02:59:50.482Z,73.50
2019-01-09T03:02:16.343Z,73.20
2019-01-09T03:04:42.231Z,73.80
2019-01-09T03:07:08.119Z,73.76
2019-01-09T03:09:36.123Z,74.26
2019-01-09T03:12:02.089Z,74.24
2019-01-09T03:14:28.070Z,73.55
2019-01-09T03:16:54.006Z,73.26
2019-01-09T03:19:19.860Z,73.75
2019-01-09T03:21:45.746Z,74.60
2019-01-09T03:24:11.834Z,75.21
2019-01-09T03:26:38.226Z,76.01
2019-01-09T03:29:04.123Z,75.35
2019-01-09T03:31:30.020Z,75.29
2019-01-09T03:33:55.893Z,74.54
2019-01-09T03:36:21.762Z,74.24
2019-01-09T03:38:47.681Z,72.09
2019-01-09T03:41:13.567Z,73.01
2019-01-09T03:43:39.442Z,74.07
2019-01-09T03:46:05.348Z,74.50
2019-01-09T03:48:31.338Z,74.90
2019-01-09T03:50:57.260Z,73.11
2019-01-09T03:53:23.157Z,72.79
2019-01-09T03:55:49.051Z,73.64
2019-01-09T03:58:14.958Z,73.35
2019-01-09T04:00:40.862Z,73.18
2019-01-09T04:03:06.725Z,72.92
2019-01-09T04:05:32.634Z,73.37
2019-01-09T04:07:58.531Z,73.57
2019-01-09T04:10:24.407Z,74.73
2019-01-09T04:12:50.279Z,74.55
2019-01-09T04:15:16.163Z,73.63
2019-01-09T04:17:42.116Z,73.52
2019-01-09T04:20:08.022Z,73.74
2019-01-09T04:22:34.150Z,74.60
2019-01-09T04:25:00.590Z,76.00
2019-01-09T04:27:27.196Z,76.17
2019-01-09T04:29:53.068Z,75.65
2019-01-09T04:32:18.956Z,76.01
2019-01-09T04:34:44.841Z,76.39
2019-01-09T04:37:10.707Z,77.43
2019-01-09T04:39:36.581Z,78.27
2019-01-09T04:42:02.450Z,76.38
2019-01-09T04:44:28.450Z,77.16
2019-01-09T04:46:54.379Z,76.83
2019-01-09T04:49:20.414Z,76.50
2019-01-09T04:51:46.404Z,77.64
2019-01-09T04:54:12.339Z,76.87
2019-01-09T04:56:38.185Z,76.42
2019-01-09T04:59:04.061Z,76.85
2019-01-09T05:01:30.056Z,76.66
2019-01-09T05:03:55.927Z,77.06
2019-01-09T05:06:21.807Z,77.96
2019-01-09T05:08:47.687Z,77.94
2019-01-09T05:11:13.562Z,76.45
2019-01-09T05:13:39.436Z,76.20
2019-01-09T05:16:05.414Z,76.88
2019-01-09T05:18:31.295Z,77.47
2019-01-09T05:20:57.167Z,77.04
2019-01-09T05:23:23.141Z,76.33
2019-01-09T05:25:49.626Z,76.13
2019-01-09T05:28:15.923Z,76.75
2019-01-09T05:30:41.807Z,78.46
2019-01-09T05:33:07.759Z,78.68
2019-01-09T05:35:33.826Z,77.11
2019-01-09T05:37:59.721Z,78.08
2019-01-09T05:40:25.567Z,79.28
2019-01-09T05:42:51.428Z,80.45
2019-01-09T05:45:17.418Z,81.15
2019-01-09T05:47:43.324Z,81.95
2019-01-09T05:50:09.206Z,82.23
2019-01-09T05:52:35.116Z,82.47
2019-01-09T05:55:00.963Z,82.57
2019-01-09T05:57:26.831Z,82.07
2019-01-09T05:59:52.775Z,81.68
2019-01-09T06:02:18.879Z,81.89
2019-01-09T06:04:45.209Z,82.07
2019-01-09T06:07:18.322Z,82.20
2019-01-09T06:09:38.930Z,82.18
2019-01-09T06:12:04.839Z,82.24
2019-01-09T06:14:30.758Z,82.23
2019-01-09T06:16:56.614Z,82.33
2019-01-09T06:19:22.499Z,82.52
2019-01-09T06:21:49.751Z,81.92
2019-01-09T06:24:15.619Z,81.85
2019-01-09T06:26:42.105Z,81.98
2019-01-09T06:29:08.544Z,82.09
2019-01-09T06:31:34.412Z,82.26
2019-01-09T06:34:00.285Z,82.25
2019-01-09T06:36:26.170Z,81.19
2019-01-09T06:38:53.721Z,79.90
2019-01-09T06:41:19.582Z,80.21
2019-01-09T06:43:45.461Z,80.38
2019-01-09T06:46:11.413Z,80.47
2019-01-09T06:48:37.301Z,79.72
2019-01-09T06:51:03.266Z,79.71
2019-01-09T06:53:29.263Z,78.90
2019-01-09T06:55:55.158Z,78.29
2019-01-09T06:58:20.968Z,79.04
2019-01-09T07:00:46.896Z,77.67
2019-01-09T07:03:12.767Z,77.98
2019-01-09T07:05:38.736Z,78.44
2019-01-09T07:08:04.600Z,78.26
2019-01-09T07:10:30.516Z,78.58
2019-01-09T07:12:56.377Z,76.96
2019-01-09T07:15:22.252Z,73.73
2019-01-09T07:17:48.181Z,73.43
2019-01-09T07:20:14.087Z,73.98
2019-01-09T07:22:39.988Z,72.33
2019-01-09T07:25:05.868Z,71.02
2019-01-09T07:27:32.136Z,70.48
2019-01-09T07:29:58.504Z,69.61
2019-01-09T07:32:24.418Z,73.12
2019-01-09T07:34:50.268Z,78.32
2019-01-09T07:37:16.152Z,77.18
2019-01-09T07:39:42.459Z,77.13
2019-01-09T07:42:08.331Z,79.50
2019-01-09T07:44:34.334Z,81.26
2019-01-09T07:47:00.301Z,78.30
2019-01-09T07:49:26.221Z,79.61
2019-01-09T07:51:52.350Z,79.45
2019-01-09T07:54:18.217Z,79.22
2019-01-09T07:56:44.093Z,80.00
2019-01-09T07:59:10.073Z,80.89
2019-01-09T08:01:35.970Z,80.96
2019-01-09T08:04:01.830Z,80.96
2019-01-09T08:06:27.709Z,79.58
2019-01-09T08:08:53.578Z,77.08
2019-01-09T08:11:19.446Z,75.95
2019-01-09T08:13:45.313Z,77.29
2019-01-09T08:16:11.306Z,76.78
2019-01-09T08:18:37.225Z,76.60
2019-01-09T08:21:05.383Z,76.90
2019-01-09T08:23:30.900Z,77.12
2019-01-09T08:25:57.674Z,76.30
2019-01-09T08:28:23.640Z,75.72
2019-01-09T08:30:50.934Z,75.43
2019-01-09T08:33:16.813Z,75.38
2019-01-09T08:35:42.686Z,73.81
2019-01-09T08:38:08.556Z,71.79
2019-01-09T08:40:34.438Z,70.58
2019-01-09T08:43:00.520Z,70.16
2019-01-09T08:45:26.432Z,69.41
2019-01-09T08:47:52.339Z,69.26
2019-01-09T08:50:18.226Z,69.54
2019-01-09T08:52:44.128Z,69.19
2019-01-09T08:55:10.027Z,68.68
2019-01-09T08:57:35.923Z,68.47
2019-01-09T09:00:05.756Z,67.86
2019-01-09T09:02:31.633Z,66.93
2019-01-09T09:04:57.504Z,66.88
2019-01-09T09:07:23.506Z,66.51
2019-01-09T09:09:49.376Z,65.98
2019-01-09T09:12:15.229Z,64.53
2019-01-09T09:14:41.116Z,62.54
2019-01-09T09:17:06.992Z,61.68
2019-01-09T09:19:32.883Z,61.16
2019-01-09T09:21:58.778Z,60.55
2019-01-09T09:24:24.646Z,60.66
2019-01-09T09:26:50.503Z,59.44
2019-01-09T09:29:16.802Z,57.15
2019-01-09T09:31:43.281Z,55.67
2019-01-09T09:34:09.161Z,55.67
2019-01-09T09:36:35.072Z,53.34
2019-01-09T09:39:00.966Z,53.54
2019-01-09T09:41:27.055Z,54.71
2019-01-09T09:43:52.936Z,55.36
2019-01-09T09:46:18.817Z,55.05
2019-01-09T09:48:44.674Z,54.31
2019-01-09T09:51:10.597Z,54.23
2019-01-09T09:53:36.801Z,53.30
2019-01-09T09:56:02.673Z,52.49
2019-01-09T09:58:28.536Z,52.20
2019-01-09T10:00:54.436Z,51.40
2019-01-09T10:03:20.313Z,49.91
2019-01-09T10:05:46.188Z,48.34
2019-01-09T10:08:12.039Z,50.23
2019-01-09T10:10:39.266Z,50.13
2019-01-09T10:13:05.327Z,49.27
2019-01-09T10:15:31.302Z,58.60
2019-01-09T10:17:57.202Z,59.09
2019-01-09T10:20:23.469Z,57.83
2019-01-09T10:22:49.333Z,57.80
2019-01-09T10:25:15.325Z,58.56
2019-01-09T10:27:41.209Z,60.27
2019-01-09T10:30:13.962Z,60.59
2019-01-09T10:32:40.418Z,61.02
2019-01-09T10:35:06.380Z,61.00
2019-01-09T10:37:32.253Z,61.00
2019-01-09T10:39:58.130Z,60.96
2019-01-09T10:42:24.024Z,60.45
2019-01-09T10:44:50.331Z,51.34
2019-01-09T10:47:16.213Z,44.32
2019-01-09T10:49:42.432Z,44.98
2019-01-09T10:52:08.339Z,35.00
2019-01-09T10:54:35.164Z,32.43
2019-01-09T10:57:01.021Z,27.62
2019-01-09T10:59:26.950Z,26.54
2019-01-09T11:01:52.854Z,25.93
2019-01-09T11:04:18.718Z,25.42
2019-01-09T11:06:46.576Z,25.20
2019-01-09T11:09:12.429Z,24.60
2019-01-09T11:11:38.419Z,24.33
2019-01-09T11:14:04.371Z,24.75
2019-01-09T11:16:30.231Z,24.44
2019-01-09T11:18:56.136Z,24.48
2019-01-09T11:21:22.387Z,24.03
2019-01-09T11:23:48.261Z,23.27
2019-01-09T11:26:15.274Z,23.29
2019-01-09T11:28:41.226Z,23.25
2019-01-09T11:31:07.636Z,22.64
2019-01-09T11:33:34.113Z,22.34
2019-01-09T11:35:59.979Z,22.54
2019-01-09T11:38:27.487Z,21.92
2019-01-09T11:40:53.399Z,22.18
2019-01-09T11:43:19.270Z,21.24
2019-01-09T11:45:45.157Z,21.30
2019-01-09T11:48:11.030Z,21.34
2019-01-09T11:50:36.908Z,21.05
2019-01-09T11:53:02.799Z,21.32
2019-01-09T11:55:28.707Z,21.11
2019-01-09T11:57:54.876Z,20.78
2019-01-09T12:00:22.845Z,20.50
2019-01-09T12:02:48.850Z,20.69
2019-01-09T12:05:14.776Z,20.11
2019-01-09T12:07:40.722Z,20.50
2019-01-09T12:10:10.103Z,20.57
2019-01-09T12:12:36.021Z,20.08
2019-01-09T12:15:03.013Z,20.13
2019-01-09T12:17:29.697Z,20.57
2019-01-09T12:19:55.586Z,20.88
2019-01-09T12:22:21.608Z,20.49
2019-01-09T12:24:47.496Z,21.08
2019-01-09T12:27:13.402Z,20.92
2019-01-09T12:29:39.308Z,21.01
2019-01-09T12:32:05.602Z,20.95
2019-01-09T12:34:32.074Z,20.84
2019-01-09T12:36:57.918Z,21.01
2019-01-09T12:39:23.887Z,21.26
2019-01-09T12:41:49.783Z,21.54
2019-01-09T12:44:15.683Z,20.74
2019-01-09T12:46:41.562Z,20.92
2019-01-09T12:49:07.453Z,21.43
2019-01-09T12:51:33.335Z,22.12
2019-01-09T12:53:59.214Z,22.43
2019-01-09T12:56:25.108Z,22.94
2019-01-09T12:58:51.001Z,22.70
2019-01-09T13:01:16.856Z,23.16
2019-01-09T13:03:44.639Z,23.28
2019-01-09T13:06:10.618Z,23.31
2019-01-09T13:08:36.524Z,23.23
2019-01-09T13:11:02.370Z,23.42
2019-01-09T13:13:28.256Z,22.96
2019-01-09T13:15:54.144Z,22.79
2019-01-09T13:18:20.025Z,23.22
2019-01-09T13:20:45.884Z,22.59
2019-01-09T13:23:11.763Z,22.09
2019-01-09T13:25:37.620Z,22.37
2019-01-09T13:28:03.775Z,23.15
2019-01-09T13:30:29.699Z,23.13
2019-01-09T13:32:55.649Z,22.76
2019-01-09T13:35:21.909Z,22.33
2019-01-09T13:37:47.799Z,23.25
2019-01-09T13:40:17.972Z,23.64
2019-01-09T13:42:45.766Z,23.77
2019-01-09T13:45:13.962Z,23.95
2019-01-09T13:47:39.848Z,24.10
2019-01-09T13:50:09.057Z,24.24
2019-01-09T13:52:34.917Z,24.30
2019-01-09T13:55:01.556Z,24.35
2019-01-09T13:57:27.436Z,24.67
2019-01-09T13:59:53.315Z,24.20
2019-01-09T14:02:19.194Z,23.89
2019-01-09T14:04:45.086Z,23.55
2019-01-09T14:07:10.946Z,23.75
2019-01-09T14:09:39.554Z,23.78
2019-01-09T14:12:04.936Z,23.77
2019-01-09T14:14:30.815Z,22.99
2019-01-09T14:16:56.676Z,22.42
2019-01-09T14:19:22.556Z,21.45
2019-01-09T14:21:48.435Z,22.10
2019-01-09T14:24:14.295Z,22.36
2019-01-09T14:26:40.172Z,22.91
2019-01-09T14:29:06.052Z,21.16
2019-01-09T14:31:31.922Z,21.41
2019-01-09T14:33:58.281Z,20.46
2019-01-09T14:36:25.040Z,20.12
2019-01-09T14:38:51.022Z,17.75
2019-01-09T14:41:16.912Z,17.31
2019-01-09T14:43:42.768Z,16.79
2019-01-09T14:46:08.661Z,16.34
2019-01-09T14:48:34.792Z,16.44
2019-01-09T14:51:00.669Z,16.33
2019-01-09T14:53:28.452Z,16.43
2019-01-09T14:55:54.348Z,16.25
2019-01-09T14:58:20.213Z,16.07
2019-01-09T15:00:46.075Z,16.59
2019-01-09T15:03:11.945Z,16.57
2019-01-09T15:05:37.832Z,16.10
2019-01-09T15:08:03.731Z,16.46
2019-01-09T15:10:31.466Z,16.53
2019-01-09T15:12:57.473Z,17.50
2019-01-09T15:15:24.545Z,16.30
2019-01-09T15:17:50.422Z,16.36
2019-01-09T15:20:18.790Z,16.81
2019-01-09T15:22:44.984Z,16.97
2019-01-09T15:25:12.171Z,16.13
2019-01-09T15:27:38.033Z,15.69
2019-01-09T15:30:13.688Z,15.71
2019-01-09T15:32:39.582Z,16.12
2019-01-09T15:35:08.623Z,15.49
2019-01-09T15:37:34.850Z,15.57
2019-01-09T15:40:05.528Z,15.88
2019-01-09T15:42:28.478Z,16.18
2019-01-09T15:44:54.472Z,16.62
2019-01-09T15:47:20.452Z,16.33
2019-01-09T15:49:46.411Z,16.52
2019-01-09T15:52:12.267Z,16.52
2019-01-09T15:54:38.158Z,16.89
2019-01-09T15:57:04.042Z,17.26
2019-01-09T15:59:29.927Z,16.78
2019-01-09T16:01:58.163Z,16.87
2019-01-09T16:04:24.111Z,16.28
2019-01-09T16:06:49.999Z,16.92
2019-01-09T16:09:15.885Z,16.85
2019-01-09T16:11:41.762Z,17.14
2019-01-09T16:14:09.525Z,16.69
2019-01-09T16:16:35.509Z,16.98
2019-01-09T16:19:01.452Z,17.12
2019-01-09T16:21:27.302Z,16.67
2019-01-09T16:23:53.183Z,16.91
2019-01-09T16:26:19.066Z,16.68
2019-01-09T16:28:44.938Z,16.80
2019-01-09T16:31:13.531Z,17.06
2019-01-09T16:33:39.374Z,16.16
2019-01-09T16:36:05.383Z,15.72
2019-01-09T16:38:31.514Z,16.13
2019-01-09T16:40:57.634Z,16.03
2019-01-09T16:43:23.877Z,16.20
2019-01-09T16:45:49.832Z,16.32
2019-01-09T16:48:15.703Z,15.93
2019-01-09T16:50:41.673Z,15.74
2019-01-09T16:53:07.587Z,16.05
2019-01-09T16:55:33.569Z,16.07
2019-01-09T16:57:59.663Z,16.07
2019-01-09T17:00:32.094Z,16.15
2019-01-09T17:02:59.878Z,16.11
2019-01-09T17:05:26.052Z,15.72
2019-01-09T17:07:52.706Z,15.82
2019-01-09T17:10:18.579Z,15.93
2019-01-09T17:12:44.456Z,16.11
2019-01-09T17:15:13.897Z,15.91
2019-01-09T17:17:39.775Z,16.27
2019-01-09T17:20:09.219Z,16.23
2019-01-09T17:22:35.101Z,16.58
2019-01-09T17:25:01.028Z,16.20
2019-01-09T17:27:26.899Z,16.37
2019-01-09T17:29:55.229Z,16.70
2019-01-09T17:32:21.810Z,16.70
2019-01-09T17:34:47.797Z,16.98
2019-01-09T17:37:14.181Z,16.79
2019-01-09T17:39:40.387Z,16.86
2019-01-09T17:42:06.247Z,16.62
2019-01-09T17:44:32.116Z,16.39
2019-01-09T17:46:57.982Z,16.54
2019-01-09T17:49:23.879Z,16.72
2019-01-09T17:51:49.757Z,16.47
2019-01-09T17:54:15.681Z,16.61
2019-01-09T17:56:41.667Z,16.59
2019-01-09T17:59:07.531Z,17.29
2019-01-09T18:01:33.623Z,17.12
2019-01-09T18:03:59.473Z,17.43
2019-01-09T18:06:25.372Z,17.73
2019-01-09T18:08:51.473Z,17.82
2019-01-09T18:11:17.344Z,17.75
2019-01-09T18:13:43.334Z,18.13
2019-01-09T18:16:09.190Z,18.24
2019-01-09T18:18:36.996Z,19.33
2019-01-09T18:21:02.846Z,25.02
2019-01-09T18:23:28.753Z,28.04
2019-01-09T18:25:54.585Z,29.12
2019-01-09T18:28:20.505Z,30.34
2019-01-09T18:30:50.200Z,30.82
2019-01-09T18:33:26.243Z,31.18
2019-01-09T18:36:04.737Z,31.63
2019-01-09T18:38:37.067Z,32.21
2019-01-09T18:41:19.922Z,32.38
2019-01-09T18:43:52.642Z,32.64
2019-01-09T18:46:34.212Z,31.52
2019-01-09T18:49:15.789Z,31.98
2019-01-09T18:52:00.580Z,31.87
2019-01-09T18:54:26.721Z,31.63
2019-01-09T18:56:53.171Z,30.76
2019-01-09T18:59:19.160Z,30.72
2019-01-09T19:01:45.064Z,30.97
2019-01-09T19:04:10.934Z,30.17
2019-01-09T19:06:36.796Z,30.00
2019-01-09T19:09:06.319Z,30.22
2019-01-09T19:11:32.480Z,28.82
2019-01-09T19:13:58.343Z,29.67
2019-01-09T19:16:24.216Z,31.56
2019-01-09T19:18:50.110Z,30.83
2019-01-09T19:21:15.953Z,29.34
2019-01-09T19:23:41.829Z,28.78
2019-01-09T19:26:07.717Z,28.99
2019-01-09T19:28:33.594Z,28.79
2019-01-09T19:30:59.477Z,29.56
2019-01-09T19:33:25.348Z,30.95
2019-01-09T19:35:51.241Z,31.08
2019-01-09T19:38:17.074Z,31.58
2019-01-09T19:40:43.699Z,31.71
2019-01-09T19:43:09.904Z,32.81
2019-01-09T19:45:35.786Z,33.19
2019-01-09T19:48:01.662Z,33.01
2019-01-09T19:50:27.557Z,31.80
2019-01-09T19:52:53.431Z,31.40
2019-01-09T19:55:19.415Z,32.08
2019-01-09T19:57:45.389Z,32.54
2019-01-09T20:00:14.925Z,31.85
2019-01-09T20:02:40.784Z,31.79
2019-01-09T20:05:06.790Z,32.72
2019-01-09T20:07:32.702Z,33.21
2019-01-09T20:09:58.561Z,33.41
2019-01-09T20:12:24.464Z,33.81
2019-01-09T20:14:50.465Z,33.96
2019-01-09T20:17:16.370Z,34.58
2019-01-09T20:19:42.336Z,34.78
2019-01-09T20:22:08.175Z,34.62
2019-01-09T20:24:34.042Z,34.15
2019-01-09T20:26:59.902Z,34.23
2019-01-09T20:29:25.947Z,34.09
2019-01-09T20:31:51.935Z,34.43
2019-01-09T20:34:17.803Z,35.26
2019-01-09T20:36:43.885Z,35.56
2019-01-09T20:39:09.799Z,35.81
2019-01-09T20:41:36.232Z,36.08
2019-01-09T20:44:05.863Z,35.93
2019-01-09T20:46:31.875Z,35.21
2019-01-09T20:48:57.738Z,35.35
2019-01-09T20:51:23.626Z,34.95
2019-01-09T20:53:49.557Z,35.62
2019-01-09T20:56:15.456Z,35.42
2019-01-09T20:58:41.553Z,33.52
2019-01-09T21:01:08.134Z,33.12
2019-01-09T21:03:34.105Z,32.96
2019-01-09T21:05:59.952Z,32.57
2019-01-09T21:08:26.061Z,32.56
2019-01-09T21:10:52.041Z,33.25
2019-01-09T21:13:17.942Z,33.75
2019-01-09T21:15:43.830Z,33.89
2019-01-09T21:18:09.686Z,33.02
2019-01-09T21:20:35.593Z,32.16
2019-01-09T21:23:01.491Z,31.81
2019-01-09T21:25:27.462Z,31.84
2019-01-09T21:27:53.450Z,31.98
2019-01-09T21:30:24.472Z,32.30
2019-01-09T21:32:50.475Z,32.36
2019-01-09T21:35:16.373Z,32.58
2019-01-09T21:37:42.554Z,33.38
2019-01-09T21:40:12.118Z,32.56
2019-01-09T21:42:38.531Z,32.66
2019-01-09T21:45:07.041Z,33.46
2019-01-09T21:47:33.060Z,32.19
2019-01-09T21:49:59.017Z,32.08
2019-01-09T21:52:24.913Z,32.09
2019-01-09T21:54:50.797Z,32.64
2019-01-09T21:57:17.630Z,32.50
2019-01-09T21:59:43.611Z,32.50
2019-01-09T22:02:09.523Z,32.33
2019-01-09T22:04:35.412Z,32.68
2019-01-09T22:07:01.283Z,32.63
2019-01-09T22:09:27.391Z,33.08
2019-01-09T22:12:02.190Z,33.15
2019-01-09T22:14:21.561Z,32.52
2019-01-09T22:16:47.472Z,32.88
2019-01-09T22:19:13.319Z,32.92
2019-01-09T22:21:39.313Z,32.68
2019-01-09T22:24:05.268Z,33.65
2019-01-09T22:26:31.258Z,34.03
2019-01-09T22:28:57.167Z,33.46
2019-01-09T22:31:23.029Z,33.59
2019-01-09T22:33:51.491Z,33.50
2019-01-09T22:36:17.385Z,33.50
2019-01-09T22:38:43.254Z,33.80
2019-01-09T22:41:09.146Z,33.65
2019-01-09T22:43:35.156Z,33.37
2019-01-09T22:46:04.996Z,32.75
2019-01-09T22:48:30.886Z,32.71
2019-01-09T22:50:56.750Z,32.80
2019-01-09T22:53:22.626Z,32.92
2019-01-09T22:55:48.535Z,33.48
2019-01-09T22:58:14.401Z,33.36
2019-01-09T23:00:53.236Z,33.70
2019-01-09T23:03:19.247Z,33.75
2019-01-09T23:05:45.460Z,33.53
2019-01-09T23:08:11.431Z,33.82
2019-01-09T23:10:37.335Z,34.31
2019-01-09T23:13:03.314Z,34.52
2019-01-09T23:15:29.309Z,34.38
2019-01-09T23:17:55.197Z,33.89
2019-01-09T23:20:21.085Z,34.32
2019-01-09T23:22:46.961Z,34.48
2019-01-09T23:25:12.939Z,34.33
2019-01-09T23:27:38.792Z,34.36
2019-01-09T23:30:07.876Z,34.21
2019-01-09T23:32:33.874Z,33.78
2019-01-09T23:34:59.814Z,34.12
2019-01-09T23:37:25.627Z,34.46
2019-01-09T23:39:51.497Z,35.19
2019-01-09T23:42:17.420Z,35.53
2019-01-09T23:44:44.059Z,35.51
2019-01-09T23:47:10.837Z,35.62
2019-01-09T23:49:36.713Z,35.74
2019-01-09T23:52:02.589Z,35.74
2019-01-09T23:54:28.559Z,35.67
2019-01-09T23:56:54.467Z,35.78
2019-01-09T23:59:20.422Z,35.66
